Prospect Creek, Prospect Cree, AK

1:59 AM AKDT on September 16, 2014 (GMT -0800)
Bettles | Change Station
CLOSE
Current Station
Airport
Location: Bettles,
Elevation: 643 ft
Nearby Weather Stations

Elev 643 ft 66.91 °N, 151.53 °W | Updated 6 minutes ago

Mostly Cloudy
Mostly Cloudy
50 °F
Feels Like 50 °F
N
4
Wind Variable Wind from North

Today
High -- | Low -- °F
--% Chance of Precip.
Yesterday
High -- | Low -- °F
Precip. -- in
7:25 AM 8:27 PM
Waning Gibbous, 47% visible
Pressure 29.60 in
Visibility 10.0 miles
Clouds Few 3000 ft
Mostly Cloudy 6500 ft
Mostly Cloudy 10000 ft
Dew Point 48 °F
Humidity 93%
Rainfall 0.02 in
Snow Depth Not available.
UV 0 out of 12
Pollen Not available.
Air Quality Not available.
Flu Activity Not available.
METAR PABT 160953Z 36003KT 10SM FEW030 BKN065 BKN100 10/09 A2958 RMK AO2 RAE08 SLP022 P0000 T01000089

More Conditions Fewer Conditions

Pressure 29.60 in
Visibility 10.0 miles
Clouds Few 3000 ft
Mostly Cloudy 6500 ft
Mostly Cloudy 10000 ft
Dew Point 48 °F
Humidity 93%
Rainfall 0.02 in
Snow Depth Not available.
UV 0 out of 12
Pollen Not available.
Air Quality Not available.
Flu Activity Not available.
METAR PABT 160953Z 36003KT 10SM FEW030 BKN065 BKN100 10/09 A2958 RMK AO2 RAE08 SLP022 P0000 T01000089

More Conditions Fewer Conditions

10-Day Weather Forecast

Almanac

Astronomy

Sep. 16, 2014 Rise Set
Actual Time 7:25 AM AKDT 8:27 PM AKDT
Civil Twilight 6:30 AM AKDT 9:21 PM AKDT
Nautical Twilight 5:20 AM AKDT 10:30 PM AKDT
Astronomical Twilight 3:45 AM AKDT 12:02 AM AKDT
Moon 11:35 PM AKDT 6:01 PM AKDT
Length of Visible Light 14h 50m
Length of Day
13h 01m
Tomorrow will be 7m 18s shorter.
Waning Gibbous, 47% of the Moon is Illuminated
Today
Waning Gibbous
Sep 24
New
Oct 1
First Quarter
Oct 8
Full
Oct 15
Last Quarter

Today's Extremes

State Highs State Lows

Community

WunderPhotos

Upload Photos

1,753,714 photos uploaded!

WunderBlogs® & News

Nearby

Snow Depth

Station Depth Elevation
Atigun Pass 5 in 4800 ft
Little Chena Ridge 0 in 2000 ft
Mcneil Canyon 1 in 1320 ft
Rocky Point 5 in 500 ft
Long Lake 0 in 820 ft

Earthquake Activity

City Distance Mag. Time & Date
No recent earthquake activity has been reported nearby.
Minimum magnitude displayed is 2.5.

Coastal Water Temperatures

Place Temperature
No Stations Reporting

Nearby Weather Stations